Terminal Aerodrome Forecast
Issued by NWS

Current Version | Previous Version | Graphics & Text | Print | Product List | Glossary On
Versions: 1 2 3 4 5 6 7 8 9 10 11 12 13 14 15 16
899
FTUS41 KPBZ 101737
TAFHLG
TAF
KHLG 101737Z 1018/1118 24012G22KT P6SM BKN025
     FM101900 24012G20KT P6SM SCT025 BKN060
     FM110500 24010KT P6SM VCSH OVC025
     FM110900 27012KT P6SM OVC015
     FM111600 22006KT P6SM BKN040=

USA.gov is the U.S. government's official web portal to all federal, state and local government web resources and services.